KHOB/HOB METAR and TAF weather

Enter ICAO airport designator
Station Type Date Time Source
KHOB METAR 2020/02/28 08:15 UTC NOAA

KHOB 280815Z AUTO 31010KT 10SM CLR 01/M10 A3029 RMK AO2


Station Type Date Time Source
KHOB Decoded METAR 2020/02/28 08:15 UTC NOAA

Hobbs / Lea County, NM, United States (KHOB) 32-41N 103-13W
Feb 28, 2020 - 03:15 AM EST / 2020.02.28 0815 UTC
Wind: from the NW (310 degrees) at 12 MPH (10 KT):0
Visibility: 10 mile(s):0
Sky conditions: clear
Temperature: 33 F (1 C)
Windchill: 24 F (-4 C):1
Dew Point: 14 F (-10 C)
Relative Humidity: 43%
Pressure (altimeter): 30.29 in. Hg (1025 hPa)
ob: KHOB 280815Z AUTO 31010KT 10SM CLR 01/M10 A3029 RMK AO2
cycle: 8

Station Type Date Time Source
KHOB TAF 2020/02/28 06:22 UTC NOAA

TAF KHOB 280520Z 2806/2906 11005KT P6SM FEW250

Example: see airport list